sensor_id;sensor_type;location;lat;lon;timestamp;pressure;altitude;pressure_sealevel;temperature;humidity
7748;BME280;3918;42.564;23.164;2022-12-07T06:02:39;-11650.84;;;-142.29;100.00
7748;BME280;3918;42.564;23.164;2022-12-07T06:05:07;-11650.84;;;-142.29;100.00
7748;BME280;3918;42.564;23.164;2022-12-07T06:07:34;-11650.84;;;-142.29;100.00
7748;BME280;3918;42.564;23.164;2022-12-07T06:10:00;-11650.84;;;-142.29;100.00
7748;BME280;3918;42.564;23.164;2022-12-07T06:12:27;-11650.84;;;-142.29;100.00
7748;BME280;3918;42.564;23.164;2022-12-07T06:15:05;-11650.84;;;-142.29;100.00
7748;BME280;3918;42.564;23.164;2022-12-07T06:17:32;-11650.84;;;-142.29;100.00
7748;BME280;3918;42.564;23.164;2022-12-07T06:20:00;-11650.84;;;-142.29;100.00
7748;BME280;3918;42.564;23.164;2022-12-07T06:22:27;-11650.84;;;-142.29;100.00
7748;BME280;3918;42.564;23.164;2022-12-07T06:24:54;-11650.84;;;-142.29;100.00
7748;BME280;3918;42.564;23.164;2022-12-07T06:27:21;-11650.84;;;-142.29;100.00
7748;BME280;3918;42.564;23.164;2022-12-07T06:29:47;-11650.84;;;-142.29;100.00
7748;BME280;3918;42.564;23.164;2022-12-07T06:32:14;-11650.84;;;-142.29;100.00
7748;BME280;3918;42.564;23.164;2022-12-07T06:34:41;-11650.84;;;-142.29;100.00
7748;BME280;3918;42.564;23.164;2022-12-07T06:37:10;-11650.84;;;-142.29;100.00
7748;BME280;3918;42.564;23.164;2022-12-07T06:39:36;-11650.84;;;-142.29;100.00
7748;BME280;3918;42.564;23.164;2022-12-07T06:42:04;-11650.84;;;-142.29;100.00
7748;BME280;3918;42.564;23.164;2022-12-07T06:44:31;-11650.84;;;-142.29;100.00
7748;BME280;3918;42.564;23.164;2022-12-07T06:46:58;-11650.84;;;-142.29;100.00
7748;BME280;3918;42.564;23.164;2022-12-07T06:49:25;-11650.84;;;-142.29;100.00
7748;BME280;3918;42.564;23.164;2022-12-07T06:51:51;-11650.84;;;-142.29;100.00
7748;BME280;3918;42.564;23.164;2022-12-07T06:54:20;-11650.84;;;-142.29;100.00
7748;BME280;3918;42.564;23.164;2022-12-07T06:56:47;-11650.84;;;-142.29;100.00
7748;BME280;3918;42.564;23.164;2022-12-07T06:59:14;-11650.84;;;-142.29;100.00
7748;BME280;3918;42.564;23.164;2022-12-07T07:01:40;-11650.84;;;-142.29;100.00
7748;BME280;3918;42.564;23.164;2022-12-07T07:04:07;-11650.84;;;-142.29;100.00
7748;BME280;3918;42.564;23.164;2022-12-07T07:06:34;-11650.84;;;-142.29;100.00
7748;BME280;3918;42.564;23.164;2022-12-07T07:09:01;-11650.84;;;-142.29;100.00
7748;BME280;3918;42.564;23.164;2022-12-07T07:11:29;-11650.84;;;-142.29;100.00
7748;BME280;3918;42.564;23.164;2022-12-07T07:13:56;-11650.84;;;-142.29;100.00
7748;BME280;3918;42.564;23.164;2022-12-07T07:16:27;-11650.84;;;-142.29;100.00
7748;BME280;3918;42.564;23.164;2022-12-07T07:18:54;-11650.84;;;-142.29;100.00
7748;BME280;3918;42.564;23.164;2022-12-07T07:21:21;-11650.84;;;-142.29;100.00
7748;BME280;3918;42.564;23.164;2022-12-07T07:23:48;-11650.84;;;-142.29;100.00
7748;BME280;3918;42.564;23.164;2022-12-07T07:26:15;-11650.84;;;-142.29;100.00
7748;BME280;3918;42.564;23.164;2022-12-07T07:28:43;-11650.84;;;-142.29;100.00
7748;BME280;3918;42.564;23.164;2022-12-07T07:31:09;-11650.84;;;-142.29;100.00
7748;BME280;3918;42.564;23.164;2022-12-07T07:33:36;-11650.84;;;-142.29;100.00
7748;BME280;3918;42.564;23.164;2022-12-07T07:36:04;-11650.84;;;-142.29;100.00
7748;BME280;3918;42.564;23.164;2022-12-07T07:38:30;-11650.84;;;-142.29;100.00
7748;BME280;3918;42.564;23.164;2022-12-07T07:40:57;-11650.84;;;-142.29;100.00
7748;BME280;3918;42.564;23.164;2022-12-07T07:43:24;-11650.84;;;-142.29;100.00
7748;BME280;3918;42.564;23.164;2022-12-07T07:45:53;-11650.84;;;-142.29;100.00
7748;BME280;3918;42.564;23.164;2022-12-07T07:48:21;-11650.84;;;-142.29;100.00
7748;BME280;3918;42.564;23.164;2022-12-07T07:50:48;-11650.84;;;-142.29;100.00
7748;BME280;3918;42.564;23.164;2022-12-07T07:53:14;-11650.84;;;-142.29;100.00
7748;BME280;3918;42.564;23.164;2022-12-07T07:55:41;-11650.84;;;-142.29;100.00
7748;BME280;3918;42.564;23.164;2022-12-07T07:58:08;-11650.84;;;-142.29;100.00
7748;BME280;3918;42.564;23.164;2022-12-07T08:00:35;-11650.84;;;-142.29;100.00
7748;BME280;3918;42.564;23.164;2022-12-07T08:03:03;-11650.84;;;-142.29;100.00
7748;BME280;3918;42.564;23.164;2022-12-07T08:05:30;-11650.84;;;-142.29;100.00
7748;BME280;3918;42.564;23.164;2022-12-07T08:07:57;-11650.84;;;-142.29;100.00
7748;BME280;3918;42.564;23.164;2022-12-07T08:10:24;-11650.84;;;-142.29;100.00
7748;BME280;3918;42.564;23.164;2022-12-07T08:12:51;-11650.84;;;-142.29;100.00
7748;BME280;3918;42.564;23.164;2022-12-07T08:15:36;-11650.84;;;-142.29;100.00
7748;BME280;3918;42.564;23.164;2022-12-07T08:18:05;-11650.84;;;-142.29;100.00
7748;BME280;3918;42.564;23.164;2022-12-07T08:20:33;-11650.84;;;-142.29;100.00
7748;BME280;3918;42.564;23.164;2022-12-07T08:23:00;-11650.84;;;-142.29;100.00
7748;BME280;3918;42.564;23.164;2022-12-07T08:25:27;-11650.84;;;-142.29;100.00
7748;BME280;3918;42.564;23.164;2022-12-07T08:27:54;-11650.84;;;-142.29;100.00
7748;BME280;3918;42.564;23.164;2022-12-07T08:30:21;-11650.84;;;-142.29;100.00
7748;BME280;3918;42.564;23.164;2022-12-07T08:32:48;-11650.84;;;-142.29;100.00
7748;BME280;3918;42.564;23.164;2022-12-07T08:35:16;-11650.84;;;-142.29;100.00
7748;BME280;3918;42.564;23.164;2022-12-07T08:37:43;-11650.84;;;-142.29;100.00
7748;BME280;3918;42.564;23.164;2022-12-07T08:40:12;-11650.84;;;-142.29;100.00
7748;BME280;3918;42.564;23.164;2022-12-07T08:42:40;-11650.84;;;-142.29;100.00
7748;BME280;3918;42.564;23.164;2022-12-07T08:45:10;-11650.84;;;-142.29;100.00
7748;BME280;3918;42.564;23.164;2022-12-07T08:47:39;-11650.84;;;-142.29;100.00
7748;BME280;3918;42.564;23.164;2022-12-07T08:50:07;-11650.84;;;-142.29;100.00
7748;BME280;3918;42.564;23.164;2022-12-07T08:52:38;-11650.84;;;-142.29;100.00
7748;BME280;3918;42.564;23.164;2022-12-07T08:55:09;-11650.84;;;-142.29;100.00
7748;BME280;3918;42.564;23.164;2022-12-07T08:57:36;-11650.84;;;-142.29;100.00
7748;BME280;3918;42.564;23.164;2022-12-07T09:00:05;-11650.84;;;-142.29;100.00
7748;BME280;3918;42.564;23.164;2022-12-07T09:02:32;-11650.84;;;-142.29;100.00
7748;BME280;3918;42.564;23.164;2022-12-07T09:04:59;-11650.84;;;-142.29;100.00
7748;BME280;3918;42.564;23.164;2022-12-07T09:07:26;-11650.84;;;-142.29;100.00
7748;BME280;3918;42.564;23.164;2022-12-07T09:09:54;-11650.84;;;-142.29;100.00
7748;BME280;3918;42.564;23.164;2022-12-07T09:12:21;-11650.84;;;-142.29;100.00
7748;BME280;3918;42.564;23.164;2022-12-07T09:14:48;-11650.84;;;-142.29;100.00
7748;BME280;3918;42.564;23.164;2022-12-07T09:17:15;-11650.84;;;-142.29;100.00
7748;BME280;3918;42.564;23.164;2022-12-07T09:19:41;-11650.84;;;-142.29;100.00
7748;BME280;3918;42.564;23.164;2022-12-07T09:22:09;-11650.84;;;-142.29;100.00
7748;BME280;3918;42.564;23.164;2022-12-07T09:24:36;-11650.84;;;-142.29;100.00
7748;BME280;3918;42.564;23.164;2022-12-07T09:27:04;-11650.84;;;-142.29;100.00
7748;BME280;3918;42.564;23.164;2022-12-07T09:29:31;-11650.84;;;-142.29;100.00
7748;BME280;3918;42.564;23.164;2022-12-07T09:31:57;-11650.84;;;-142.29;100.00
7748;BME280;3918;42.564;23.164;2022-12-07T09:34:24;-11650.84;;;-142.29;100.00
7748;BME280;3918;42.564;23.164;2022-12-07T09:36:52;-11650.84;;;-142.29;100.00
7748;BME280;3918;42.564;23.164;2022-12-07T09:39:19;-11650.84;;;-142.29;100.00
7748;BME280;3918;42.564;23.164;2022-12-07T09:41:45;-11650.84;;;-142.29;100.00
7748;BME280;3918;42.564;23.164;2022-12-07T09:44:18;-11650.84;;;-142.29;100.00
7748;BME280;3918;42.564;23.164;2022-12-07T09:46:47;-11650.84;;;-142.29;100.00
7748;BME280;3918;42.564;23.164;2022-12-07T09:49:18;-11650.84;;;-142.29;100.00
7748;BME280;3918;42.564;23.164;2022-12-07T09:51:46;-11650.84;;;-142.29;100.00
7748;BME280;3918;42.564;23.164;2022-12-07T09:54:14;-11650.84;;;-142.29;100.00
7748;BME280;3918;42.564;23.164;2022-12-07T09:56:41;-11650.84;;;-142.29;100.00
7748;BME280;3918;42.564;23.164;2022-12-07T09:59:15;-11650.84;;;-142.29;100.00
7748;BME280;3918;42.564;23.164;2022-12-07T10:01:44;-11650.84;;;-142.29;100.00
7748;BME280;3918;42.564;23.164;2022-12-07T10:04:13;-11650.84;;;-142.29;100.00
7748;BME280;3918;42.564;23.164;2022-12-07T10:06:41;-11650.84;;;-142.29;100.00
7748;BME280;3918;42.564;23.164;2022-12-07T10:09:12;-11650.84;;;-142.29;100.00
7748;BME280;3918;42.564;23.164;2022-12-07T10:11:59;-11650.84;;;-142.29;100.00
7748;BME280;3918;42.564;23.164;2022-12-07T10:14:27;-11650.84;;;-142.29;100.00
7748;BME280;3918;42.564;23.164;2022-12-07T10:16:54;-11650.84;;;-142.29;100.00
7748;BME280;3918;42.564;23.164;2022-12-07T10:19:25;-11650.84;;;-142.29;100.00
7748;BME280;3918;42.564;23.164;2022-12-07T10:22:10;-11650.84;;;-142.29;100.00
7748;BME280;3918;42.564;23.164;2022-12-07T10:24:37;-11650.84;;;-142.29;100.00
7748;BME280;3918;42.564;23.164;2022-12-07T10:27:17;-11650.84;;;-142.29;100.00
7748;BME280;3918;42.564;23.164;2022-12-07T10:29:50;-11650.84;;;-142.29;100.00
7748;BME280;3918;42.564;23.164;2022-12-07T10:32:32;-11650.84;;;-142.29;100.00
7748;BME280;3918;42.564;23.164;2022-12-07T10:35:20;-11650.84;;;-142.29;100.00
7748;BME280;3918;42.564;23.164;2022-12-07T10:37:48;-11650.84;;;-142.29;100.00
7748;BME280;3918;42.564;23.164;2022-12-07T10:40:27;-11650.84;;;-142.29;100.00
7748;BME280;3918;42.564;23.164;2022-12-07T10:43:06;-11650.84;;;-142.29;100.00
7748;BME280;3918;42.564;23.164;2022-12-07T10:46:03;-11650.84;;;-142.29;100.00
7748;BME280;3918;42.564;23.164;2022-12-07T10:48:38;-11650.84;;;-142.29;100.00
7748;BME280;3918;42.564;23.164;2022-12-07T10:51:12;-11650.84;;;-142.29;100.00
7748;BME280;3918;42.564;23.164;2022-12-07T10:53:54;-11650.84;;;-142.29;100.00
7748;BME280;3918;42.564;23.164;2022-12-07T10:56:41;-11650.84;;;-142.29;100.00
7748;BME280;3918;42.564;23.164;2022-12-07T10:59:28;-11650.84;;;-142.29;100.00
7748;BME280;3918;42.564;23.164;2022-12-07T11:02:12;-11650.84;;;-142.29;100.00
7748;BME280;3918;42.564;23.164;2022-12-07T11:04:55;-11650.84;;;-142.29;100.00
7748;BME280;3918;42.564;23.164;2022-12-07T11:07:37;-11650.84;;;-142.29;100.00
7748;BME280;3918;42.564;23.164;2022-12-07T11:10:09;-11650.84;;;-142.29;100.00
7748;BME280;3918;42.564;23.164;2022-12-07T11:12:58;-11650.84;;;-142.29;100.00
7748;BME280;3918;42.564;23.164;2022-12-07T11:15:33;-11650.84;;;-142.29;100.00
7748;BME280;3918;42.564;23.164;2022-12-07T11:18:11;-11650.84;;;-142.29;100.00
7748;BME280;3918;42.564;23.164;2022-12-07T11:20:45;-11650.84;;;-142.29;100.00
7748;BME280;3918;42.564;23.164;2022-12-07T11:23:31;-11650.84;;;-142.29;100.00
7748;BME280;3918;42.564;23.164;2022-12-07T11:26:06;-11650.84;;;-142.29;100.00
7748;BME280;3918;42.564;23.164;2022-12-07T11:28:48;-11650.84;;;-142.29;100.00
7748;BME280;3918;42.564;23.164;2022-12-07T11:31:26;-11650.84;;;-142.29;100.00
7748;BME280;3918;42.564;23.164;2022-12-07T11:34:02;-11650.84;;;-142.29;100.00
7748;BME280;3918;42.564;23.164;2022-12-07T11:36:36;-11650.84;;;-142.29;100.00
7748;BME280;3918;42.564;23.164;2022-12-07T11:39:10;-11650.84;;;-142.29;100.00
7748;BME280;3918;42.564;23.164;2022-12-07T11:41:42;-11650.84;;;-142.29;100.00
7748;BME280;3918;42.564;23.164;2022-12-07T11:44:24;-11650.84;;;-142.29;100.00
7748;BME280;3918;42.564;23.164;2022-12-07T11:46:58;-11650.84;;;-142.29;100.00
7748;BME280;3918;42.564;23.164;2022-12-07T11:49:37;-11650.84;;;-142.29;98.26
7748;BME280;3918;42.564;23.164;2022-12-07T11:52:15;-11650.84;;;-142.29;100.00
7748;BME280;3918;42.564;23.164;2022-12-07T11:54:45;-11650.84;;;-142.29;100.00
7748;BME280;3918;42.564;23.164;2022-12-07T11:57:19;-11650.84;;;-142.29;99.80
7748;BME280;3918;42.564;23.164;2022-12-07T11:59:50;-11650.84;;;-142.29;99.40
7748;BME280;3918;42.564;23.164;2022-12-07T12:02:21;-11650.84;;;-142.29;100.00
7748;BME280;3918;42.564;23.164;2022-12-07T12:04:55;-11650.84;;;-142.29;99.31
7748;BME280;3918;42.564;23.164;2022-12-07T12:07:26;-11650.84;;;-142.29;99.58
7748;BME280;3918;42.564;23.164;2022-12-07T12:09:56;-11650.84;;;-142.29;99.72
7748;BME280;3918;42.564;23.164;2022-12-07T12:12:46;-11650.84;;;-142.29;99.49
7748;BME280;3918;42.564;23.164;2022-12-07T12:15:21;-11650.84;;;-142.29;98.74
7748;BME280;3918;42.564;23.164;2022-12-07T12:18:18;-11650.84;;;-142.29;98.78
7748;BME280;3918;42.564;23.164;2022-12-07T12:20:55;-11650.84;;;-142.29;99.11
7748;BME280;3918;42.564;23.164;2022-12-07T12:23:27;-11650.84;;;-142.29;99.24
7748;BME280;3918;42.564;23.164;2022-12-07T12:26:02;-11650.84;;;-142.29;100.00
7748;BME280;3918;42.564;23.164;2022-12-07T12:28:38;-11650.84;;;-142.29;99.58
7748;BME280;3918;42.564;23.164;2022-12-07T12:31:10;-11650.84;;;-142.29;98.06
7748;BME280;3918;42.564;23.164;2022-12-07T12:33:43;-11650.84;;;-142.29;99.02
7748;BME280;3918;42.564;23.164;2022-12-07T12:39:12;-11650.84;;;-142.29;97.41
7748;BME280;3918;42.564;23.164;2022-12-07T12:41:59;-11650.84;;;-142.29;97.59
7748;BME280;3918;42.564;23.164;2022-12-07T12:47:39;-11650.84;;;-142.29;98.23
7748;BME280;3918;42.564;23.164;2022-12-07T12:50:15;-11650.84;;;-142.29;98.90
7748;BME280;3918;42.564;23.164;2022-12-07T12:56:06;-11650.84;;;-142.29;99.80
7748;BME280;3918;42.564;23.164;2022-12-07T12:58:42;-11650.84;;;-142.29;100.00
7748;BME280;3918;42.564;23.164;2022-12-07T13:01:43;-11650.84;;;-142.29;100.00
7748;BME280;3918;42.564;23.164;2022-12-07T13:04:37;-11650.84;;;-142.29;100.00
7748;BME280;3918;42.564;23.164;2022-12-07T13:07:11;-11650.84;;;-142.29;100.00
7748;BME280;3918;42.564;23.164;2022-12-07T13:09:42;-11650.84;;;-142.29;100.00
7748;BME280;3918;42.564;23.164;2022-12-07T13:12:14;-11650.84;;;-142.29;100.00
7748;BME280;3918;42.564;23.164;2022-12-07T13:14:54;-11650.84;;;-142.29;100.00
7748;BME280;3918;42.564;23.164;2022-12-07T13:20:51;-11650.84;;;-142.29;100.00
7748;BME280;3918;42.564;23.164;2022-12-07T13:23:21;-11650.84;;;-142.29;100.00
7748;BME280;3918;42.564;23.164;2022-12-07T13:25:55;-11650.84;;;-142.29;100.00
7748;BME280;3918;42.564;23.164;2022-12-07T13:28:27;-11650.84;;;-142.29;100.00
7748;BME280;3918;42.564;23.164;2022-12-07T13:31:13;-11650.84;;;-142.29;100.00
7748;BME280;3918;42.564;23.164;2022-12-07T13:33:44;-11650.84;;;-142.29;100.00
7748;BME280;3918;42.564;23.164;2022-12-07T13:36:20;-11650.84;;;-142.29;100.00
7748;BME280;3918;42.564;23.164;2022-12-07T13:38:53;-11650.84;;;-142.29;100.00
7748;BME280;3918;42.564;23.164;2022-12-07T13:41:21;-11650.84;;;-142.29;100.00
7748;BME280;3918;42.564;23.164;2022-12-07T13:43:53;-11650.84;;;-142.29;100.00
7748;BME280;3918;42.564;23.164;2022-12-07T13:46:25;-11650.84;;;-142.29;100.00
7748;BME280;3918;42.564;23.164;2022-12-07T13:48:53;-11650.84;;;-142.29;100.00
7748;BME280;3918;42.564;23.164;2022-12-07T13:51:22;-11650.84;;;-142.29;100.00
7748;BME280;3918;42.564;23.164;2022-12-07T13:53:52;-11650.84;;;-142.29;100.00
7748;BME280;3918;42.564;23.164;2022-12-07T13:56:21;-11650.84;;;-142.29;100.00
7748;BME280;3918;42.564;23.164;2022-12-07T13:58:49;-11650.84;;;-142.29;100.00
7748;BME280;3918;42.564;23.164;2022-12-07T14:01:16;-11650.84;;;-142.29;100.00
7748;BME280;3918;42.564;23.164;2022-12-07T14:03:43;-11650.84;;;-142.29;100.00
7748;BME280;3918;42.564;23.164;2022-12-07T14:06:15;-11650.84;;;-142.29;100.00
7748;BME280;3918;42.564;23.164;2022-12-07T14:08:44;-11650.84;;;-142.29;100.00
7748;BME280;3918;42.564;23.164;2022-12-07T14:11:15;-11650.84;;;-142.29;100.00
7748;BME280;3918;42.564;23.164;2022-12-07T14:13:51;-11650.84;;;-142.29;100.00
7748;BME280;3918;42.564;23.164;2022-12-07T14:16:26;-11650.84;;;-142.29;100.00
7748;BME280;3918;42.564;23.164;2022-12-07T14:18:55;-11650.84;;;-142.29;100.00
7748;BME280;3918;42.564;23.164;2022-12-07T14:21:23;-11650.84;;;-142.29;100.00
7748;BME280;3918;42.564;23.164;2022-12-07T14:24:17;-11650.84;;;-142.29;100.00
7748;BME280;3918;42.564;23.164;2022-12-07T14:26:45;-11650.84;;;-142.29;100.00
7748;BME280;3918;42.564;23.164;2022-12-07T14:29:31;-11650.84;;;-142.29;100.00
7748;BME280;3918;42.564;23.164;2022-12-07T14:32:13;-11650.84;;;-142.29;100.00
7748;BME280;3918;42.564;23.164;2022-12-07T14:34:53;-11650.84;;;-142.29;100.00
7748;BME280;3918;42.564;23.164;2022-12-07T14:37:20;-11650.84;;;-142.29;100.00
7748;BME280;3918;42.564;23.164;2022-12-07T14:39:47;-11650.84;;;-142.29;100.00
7748;BME280;3918;42.564;23.164;2022-12-07T14:42:13;-11650.84;;;-142.29;100.00
7748;BME280;3918;42.564;23.164;2022-12-07T14:44:42;-11650.84;;;-142.29;100.00
7748;BME280;3918;42.564;23.164;2022-12-07T14:47:09;-11650.84;;;-142.29;100.00
7748;BME280;3918;42.564;23.164;2022-12-07T14:49:37;-11650.84;;;-142.29;100.00
7748;BME280;3918;42.564;23.164;2022-12-07T14:52:05;-11650.84;;;-142.29;100.00
7748;BME280;3918;42.564;23.164;2022-12-07T14:54:33;-11650.84;;;-142.29;100.00
7748;BME280;3918;42.564;23.164;2022-12-07T14:56:59;-11650.84;;;-142.29;100.00
7748;BME280;3918;42.564;23.164;2022-12-07T14:59:26;-11650.84;;;-142.29;100.00
7748;BME280;3918;42.564;23.164;2022-12-07T15:01:54;-11650.84;;;-142.29;100.00
7748;BME280;3918;42.564;23.164;2022-12-07T15:04:21;-11650.84;;;-142.29;100.00
7748;BME280;3918;42.564;23.164;2022-12-07T15:06:55;-11650.84;;;-142.29;100.00
7748;BME280;3918;42.564;23.164;2022-12-07T15:09:22;-11650.84;;;-142.29;100.00
7748;BME280;3918;42.564;23.164;2022-12-07T15:11:49;-11650.84;;;-142.29;100.00
7748;BME280;3918;42.564;23.164;2022-12-07T15:14:16;-11650.84;;;-142.29;100.00
7748;BME280;3918;42.564;23.164;2022-12-07T15:16:43;-11650.84;;;-142.29;100.00
7748;BME280;3918;42.564;23.164;2022-12-07T15:19:14;-11650.84;;;-142.29;100.00
7748;BME280;3918;42.564;23.164;2022-12-07T15:21:41;-11650.84;;;-142.29;100.00
7748;BME280;3918;42.564;23.164;2022-12-07T15:24:09;-11650.84;;;-142.29;100.00
7748;BME280;3918;42.564;23.164;2022-12-07T15:26:37;-11650.84;;;-142.29;100.00
7748;BME280;3918;42.564;23.164;2022-12-07T15:29:04;-11650.84;;;-142.29;100.00
7748;BME280;3918;42.564;23.164;2022-12-07T15:31:32;-11650.84;;;-142.29;100.00
7748;BME280;3918;42.564;23.164;2022-12-07T15:33:59;-11650.84;;;-142.29;100.00
7748;BME280;3918;42.564;23.164;2022-12-07T15:36:28;-11650.84;;;-142.29;100.00
7748;BME280;3918;42.564;23.164;2022-12-07T15:38:56;-11650.84;;;-142.29;100.00
7748;BME280;3918;42.564;23.164;2022-12-07T15:41:23;-11650.84;;;-142.29;100.00
7748;BME280;3918;42.564;23.164;2022-12-07T15:43:50;-11650.84;;;-142.29;100.00
7748;BME280;3918;42.564;23.164;2022-12-07T15:46:36;-11650.84;;;-142.29;100.00
7748;BME280;3918;42.564;23.164;2022-12-07T15:49:03;-11650.84;;;-142.29;100.00
7748;BME280;3918;42.564;23.164;2022-12-07T15:51:32;-11650.84;;;-142.29;100.00
7748;BME280;3918;42.564;23.164;2022-12-07T15:53:58;-11650.84;;;-142.29;100.00
7748;BME280;3918;42.564;23.164;2022-12-07T15:56:25;-11650.84;;;-142.29;100.00
7748;BME280;3918;42.564;23.164;2022-12-07T15:58:52;-11650.84;;;-142.29;100.00
7748;BME280;3918;42.564;23.164;2022-12-07T16:01:19;-11650.84;;;-142.29;100.00
7748;BME280;3918;42.564;23.164;2022-12-07T16:03:46;-11650.84;;;-142.29;100.00
7748;BME280;3918;42.564;23.164;2022-12-07T16:06:15;-11650.84;;;-142.29;100.00
7748;BME280;3918;42.564;23.164;2022-12-07T16:08:44;-11650.84;;;-142.29;100.00
7748;BME280;3918;42.564;23.164;2022-12-07T16:11:12;-11650.84;;;-142.29;100.00
7748;BME280;3918;42.564;23.164;2022-12-07T16:13:39;-11650.84;;;-142.29;100.00
7748;BME280;3918;42.564;23.164;2022-12-07T16:16:07;-11650.84;;;-142.29;100.00
7748;BME280;3918;42.564;23.164;2022-12-07T16:18:34;-11650.84;;;-142.29;100.00
7748;BME280;3918;42.564;23.164;2022-12-07T16:21:01;-11650.84;;;-142.29;100.00
7748;BME280;3918;42.564;23.164;2022-12-07T16:23:29;-11650.84;;;-142.29;100.00
7748;BME280;3918;42.564;23.164;2022-12-07T16:26:05;-11650.84;;;-142.29;100.00
7748;BME280;3918;42.564;23.164;2022-12-07T16:28:32;-11650.84;;;-142.29;100.00
7748;BME280;3918;42.564;23.164;2022-12-07T16:31:03;-11650.84;;;-142.29;100.00
7748;BME280;3918;42.564;23.164;2022-12-07T16:33:30;-11650.84;;;-142.29;100.00
7748;BME280;3918;42.564;23.164;2022-12-07T16:35:58;-11650.84;;;-142.29;100.00
7748;BME280;3918;42.564;23.164;2022-12-07T16:38:25;-11650.84;;;-142.29;100.00
7748;BME280;3918;42.564;23.164;2022-12-07T16:40:52;-11650.84;;;-142.29;100.00
7748;BME280;3918;42.564;23.164;2022-12-07T16:43:20;-11650.84;;;-142.29;100.00
7748;BME280;3918;42.564;23.164;2022-12-07T16:45:47;-11650.84;;;-142.29;100.00
7748;BME280;3918;42.564;23.164;2022-12-07T16:48:14;-11650.84;;;-142.29;100.00
7748;BME280;3918;42.564;23.164;2022-12-07T16:50:42;-11650.84;;;-142.29;100.00
7748;BME280;3918;42.564;23.164;2022-12-07T16:53:09;-11650.84;;;-142.29;100.00
7748;BME280;3918;42.564;23.164;2022-12-07T16:55:37;-11650.84;;;-142.29;100.00
7748;BME280;3918;42.564;23.164;2022-12-07T16:58:04;-11650.84;;;-142.29;100.00
7748;BME280;3918;42.564;23.164;2022-12-07T17:00:33;-11650.84;;;-142.29;100.00
7748;BME280;3918;42.564;23.164;2022-12-07T17:03:02;-11650.84;;;-142.29;100.00
7748;BME280;3918;42.564;23.164;2022-12-07T17:05:29;-11650.84;;;-142.29;100.00
7748;BME280;3918;42.564;23.164;2022-12-07T17:07:56;-11650.84;;;-142.29;100.00
7748;BME280;3918;42.564;23.164;2022-12-07T17:10:24;-11650.84;;;-142.29;100.00
7748;BME280;3918;42.564;23.164;2022-12-07T17:12:51;-11650.84;;;-142.29;100.00
7748;BME280;3918;42.564;23.164;2022-12-07T17:15:18;-11650.84;;;-142.29;100.00
7748;BME280;3918;42.564;23.164;2022-12-07T17:17:52;-11650.84;;;-142.29;100.00
7748;BME280;3918;42.564;23.164;2022-12-07T17:20:20;-11650.84;;;-142.29;100.00
7748;BME280;3918;42.564;23.164;2022-12-07T17:22:47;-11650.84;;;-142.29;100.00
7748;BME280;3918;42.564;23.164;2022-12-07T17:25:15;-11650.84;;;-142.29;100.00
7748;BME280;3918;42.564;23.164;2022-12-07T17:27:43;-11650.84;;;-142.29;100.00
7748;BME280;3918;42.564;23.164;2022-12-07T17:30:11;-11650.84;;;-142.29;100.00
7748;BME280;3918;42.564;23.164;2022-12-07T17:32:38;-11650.84;;;-142.29;100.00
7748;BME280;3918;42.564;23.164;2022-12-07T17:35:07;-11650.84;;;-142.29;100.00
7748;BME280;3918;42.564;23.164;2022-12-07T17:37:35;-11650.84;;;-142.29;100.00
7748;BME280;3918;42.564;23.164;2022-12-07T17:40:02;-11650.84;;;-142.29;100.00
7748;BME280;3918;42.564;23.164;2022-12-07T17:42:29;-11650.84;;;-142.29;100.00
7748;BME280;3918;42.564;23.164;2022-12-07T17:45:02;-11650.84;;;-142.29;100.00
7748;BME280;3918;42.564;23.164;2022-12-07T17:47:29;-11650.84;;;-142.29;100.00
7748;BME280;3918;42.564;23.164;2022-12-07T17:49:56;-11650.84;;;-142.29;100.00
7748;BME280;3918;42.564;23.164;2022-12-07T17:52:24;-11650.84;;;-142.29;100.00
7748;BME280;3918;42.564;23.164;2022-12-07T17:55:08;-11650.84;;;-142.29;100.00
7748;BME280;3918;42.564;23.164;2022-12-07T17:57:35;-11650.84;;;-142.29;100.00
7748;BME280;3918;42.564;23.164;2022-12-07T18:00:03;-11650.84;;;-142.29;100.00
7748;BME280;3918;42.564;23.164;2022-12-07T18:02:29;-11650.84;;;-142.29;100.00
7748;BME280;3918;42.564;23.164;2022-12-07T18:04:56;-11650.84;;;-142.29;100.00
7748;BME280;3918;42.564;23.164;2022-12-07T18:07:24;-11650.84;;;-142.29;100.00
7748;BME280;3918;42.564;23.164;2022-12-07T18:09:51;-11650.84;;;-142.29;100.00
7748;BME280;3918;42.564;23.164;2022-12-07T18:12:18;-11650.84;;;-142.29;100.00
7748;BME280;3918;42.564;23.164;2022-12-07T18:14:45;-11650.84;;;-142.29;100.00
7748;BME280;3918;42.564;23.164;2022-12-07T18:17:13;-11650.84;;;-142.29;100.00
7748;BME280;3918;42.564;23.164;2022-12-07T18:19:40;-11650.84;;;-142.29;100.00
7748;BME280;3918;42.564;23.164;2022-12-07T18:22:06;-11650.84;;;-142.29;100.00
7748;BME280;3918;42.564;23.164;2022-12-07T18:24:35;-11650.84;;;-142.29;100.00
7748;BME280;3918;42.564;23.164;2022-12-07T18:27:02;-11650.84;;;-142.29;100.00
7748;BME280;3918;42.564;23.164;2022-12-07T18:29:29;-11650.84;;;-142.29;100.00
7748;BME280;3918;42.564;23.164;2022-12-07T18:31:56;-11650.84;;;-142.29;100.00
7748;BME280;3918;42.564;23.164;2022-12-07T18:34:23;-11650.84;;;-142.29;100.00
7748;BME280;3918;42.564;23.164;2022-12-07T18:36:52;-11650.84;;;-142.29;100.00
7748;BME280;3918;42.564;23.164;2022-12-07T18:39:21;-11650.84;;;-142.29;100.00
7748;BME280;3918;42.564;23.164;2022-12-07T18:41:49;-11650.84;;;-142.29;100.00
7748;BME280;3918;42.564;23.164;2022-12-07T18:44:16;-11650.84;;;-142.29;100.00
7748;BME280;3918;42.564;23.164;2022-12-07T18:46:43;-11650.84;;;-142.29;100.00
7748;BME280;3918;42.564;23.164;2022-12-07T18:49:11;-11650.84;;;-142.29;100.00
7748;BME280;3918;42.564;23.164;2022-12-07T18:51:38;-11650.84;;;-142.29;100.00
7748;BME280;3918;42.564;23.164;2022-12-07T18:54:05;-11650.84;;;-142.29;100.00
7748;BME280;3918;42.564;23.164;2022-12-07T18:56:32;-11650.84;;;-142.29;100.00
7748;BME280;3918;42.564;23.164;2022-12-07T18:59:01;-11650.84;;;-142.29;100.00
7748;BME280;3918;42.564;23.164;2022-12-07T19:01:47;-11650.84;;;-142.29;100.00